sensor_id;sensor_type;location;lat;lon;timestamp;temperature;humidity
65396;HTU21D;52004;45.136;39.010;2023-07-13T00:00:35;20.59;70.13
65396;HTU21D;52004;45.136;39.010;2023-07-13T00:03:02;20.59;70.16
65396;HTU21D;52004;45.136;39.010;2023-07-13T00:05:28;20.60;70.12
65396;HTU21D;52004;45.136;39.010;2023-07-13T00:07:54;20.60;70.11
65396;HTU21D;52004;45.136;39.010;2023-07-13T00:10:20;20.60;70.10
65396;HTU21D;52004;45.136;39.010;2023-07-13T00:12:47;20.59;70.09
65396;HTU21D;52004;45.136;39.010;2023-07-13T00:15:14;20.59;70.07
65396;HTU21D;52004;45.136;39.010;2023-07-13T00:17:41;20.56;70.07
65396;HTU21D;52004;45.136;39.010;2023-07-13T00:20:11;20.55;70.07
65396;HTU21D;52004;45.136;39.010;2023-07-13T00:22:38;20.53;70.07
65396;HTU21D;52004;45.136;39.010;2023-07-13T00:25:04;20.49;70.06
65396;HTU21D;52004;45.136;39.010;2023-07-13T00:27:30;20.49;70.07
65396;HTU21D;52004;45.136;39.010;2023-07-13T00:29:57;20.47;70.09
65396;HTU21D;52004;45.136;39.010;2023-07-13T00:32:24;20.45;70.19
65396;HTU21D;52004;45.136;39.010;2023-07-13T00:34:51;20.45;70.17
65396;HTU21D;52004;45.136;39.010;2023-07-13T00:37:17;20.42;70.13
65396;HTU21D;52004;45.136;39.010;2023-07-13T00:39:43;20.40;70.13
65396;HTU21D;52004;45.136;39.010;2023-07-13T00:42:09;20.37;70.12
65396;HTU21D;52004;45.136;39.010;2023-07-13T00:44:36;20.33;70.11
65396;HTU21D;52004;45.136;39.010;2023-07-13T00:47:02;20.32;70.12
65396;HTU21D;52004;45.136;39.010;2023-07-13T00:49:29;20.27;70.13
65396;HTU21D;52004;45.136;39.010;2023-07-13T00:52:03;20.25;70.18
65396;HTU21D;52004;45.136;39.010;2023-07-13T00:54:32;20.21;70.25
65396;HTU21D;52004;45.136;39.010;2023-07-13T00:56:59;20.19;70.26
65396;HTU21D;52004;45.136;39.010;2023-07-13T00:59:26;20.18;70.27
65396;HTU21D;52004;45.136;39.010;2023-07-13T01:01:52;20.17;70.32
65396;HTU21D;52004;45.136;39.010;2023-07-13T01:04:18;20.17;70.38
65396;HTU21D;52004;45.136;39.010;2023-07-13T01:07:09;20.16;70.39
65396;HTU21D;52004;45.136;39.010;2023-07-13T01:09:36;20.16;70.42
65396;HTU21D;52004;45.136;39.010;2023-07-13T01:12:02;20.16;70.42
65396;HTU21D;52004;45.136;39.010;2023-07-13T01:14:29;20.15;70.43
65396;HTU21D;52004;45.136;39.010;2023-07-13T01:16:55;20.16;70.42
65396;HTU21D;52004;45.136;39.010;2023-07-13T01:19:28;20.15;70.42
65396;HTU21D;52004;45.136;39.010;2023-07-13T01:22:02;20.14;70.42
65396;HTU21D;52004;45.136;39.010;2023-07-13T01:24:28;20.14;70.39
65396;HTU21D;52004;45.136;39.010;2023-07-13T01:26:54;20.10;70.39
65396;HTU21D;52004;45.136;39.010;2023-07-13T01:29:21;20.10;70.40
65396;HTU21D;52004;45.136;39.010;2023-07-13T01:31:46;20.07;70.39
65396;HTU21D;52004;45.136;39.010;2023-07-13T01:34:12;20.04;70.43
65396;HTU21D;52004;45.136;39.010;2023-07-13T01:36:38;20.03;70.48
65396;HTU21D;52004;45.136;39.010;2023-07-13T01:39:05;20.02;70.52
65396;HTU21D;52004;45.136;39.010;2023-07-13T01:41:31;20.01;70.55
65396;HTU21D;52004;45.136;39.010;2023-07-13T01:43:56;20.00;70.58
65396;HTU21D;52004;45.136;39.010;2023-07-13T01:46:22;20.01;70.60
65396;HTU21D;52004;45.136;39.010;2023-07-13T01:48:49;20.00;70.59
65396;HTU21D;52004;45.136;39.010;2023-07-13T01:51:15;19.99;70.60
65396;HTU21D;52004;45.136;39.010;2023-07-13T01:53:43;19.97;70.65
65396;HTU21D;52004;45.136;39.010;2023-07-13T01:56:09;19.97;70.69
65396;HTU21D;52004;45.136;39.010;2023-07-13T01:58:35;19.98;70.71
65396;HTU21D;52004;45.136;39.010;2023-07-13T02:01:01;19.98;70.71
65396;HTU21D;52004;45.136;39.010;2023-07-13T02:03:27;19.99;70.74
65396;HTU21D;52004;45.136;39.010;2023-07-13T02:05:53;20.00;70.77
65396;HTU21D;52004;45.136;39.010;2023-07-13T02:08:19;20.01;70.77
65396;HTU21D;52004;45.136;39.010;2023-07-13T02:10:46;20.01;70.79
65396;HTU21D;52004;45.136;39.010;2023-07-13T02:13:12;20.03;70.77
65396;HTU21D;52004;45.136;39.010;2023-07-13T02:15:38;20.05;70.78
65396;HTU21D;52004;45.136;39.010;2023-07-13T02:18:05;20.05;70.79
65396;HTU21D;52004;45.136;39.010;2023-07-13T02:20:31;20.05;70.82
65396;HTU21D;52004;45.136;39.010;2023-07-13T02:22:57;20.06;70.84
65396;HTU21D;52004;45.136;39.010;2023-07-13T02:25:23;20.06;70.85
65396;HTU21D;52004;45.136;39.010;2023-07-13T02:27:50;20.09;70.89
65396;HTU21D;52004;45.136;39.010;2023-07-13T02:30:16;20.09;70.87
65396;HTU21D;52004;45.136;39.010;2023-07-13T02:32:42;20.10;70.87
65396;HTU21D;52004;45.136;39.010;2023-07-13T02:35:10;20.11;70.90
65396;HTU21D;52004;45.136;39.010;2023-07-13T02:37:37;20.12;70.91
65396;HTU21D;52004;45.136;39.010;2023-07-13T02:40:03;20.13;70.93
65396;HTU21D;52004;45.136;39.010;2023-07-13T02:42:35;20.14;70.95
65396;HTU21D;52004;45.136;39.010;2023-07-13T02:45:01;20.17;70.97
65396;HTU21D;52004;45.136;39.010;2023-07-13T02:47:27;20.18;70.97
65396;HTU21D;52004;45.136;39.010;2023-07-13T02:49:53;20.21;71.05
65396;HTU21D;52004;45.136;39.010;2023-07-13T02:52:19;20.25;71.06
65396;HTU21D;52004;45.136;39.010;2023-07-13T02:54:45;20.28;71.10
65396;HTU21D;52004;45.136;39.010;2023-07-13T02:57:11;20.33;71.11
65396;HTU21D;52004;45.136;39.010;2023-07-13T02:59:37;20.37;71.14
65396;HTU21D;52004;45.136;39.010;2023-07-13T03:02:04;20.44;71.18
65396;HTU21D;52004;45.136;39.010;2023-07-13T03:04:30;20.49;71.19
65396;HTU21D;52004;45.136;39.010;2023-07-13T03:06:56;20.54;71.18
65396;HTU21D;52004;45.136;39.010;2023-07-13T03:09:32;20.59;71.19
65396;HTU21D;52004;45.136;39.010;2023-07-13T03:12:01;20.66;71.16
65396;HTU21D;52004;45.136;39.010;2023-07-13T03:14:30;20.71;71.16
65396;HTU21D;52004;45.136;39.010;2023-07-13T03:16:58;20.76;71.12
65396;HTU21D;52004;45.136;39.010;2023-07-13T03:19:27;20.81;71.13
65396;HTU21D;52004;45.136;39.010;2023-07-13T03:21:54;20.88;71.11
65396;HTU21D;52004;45.136;39.010;2023-07-13T03:24:20;20.92;71.11
65396;HTU21D;52004;45.136;39.010;2023-07-13T03:26:50;20.99;71.16
65396;HTU21D;52004;45.136;39.010;2023-07-13T03:29:17;21.05;71.17
65396;HTU21D;52004;45.136;39.010;2023-07-13T03:31:44;21.10;71.11
65396;HTU21D;52004;45.136;39.010;2023-07-13T03:34:09;21.15;71.14
65396;HTU21D;52004;45.136;39.010;2023-07-13T03:36:37;21.19;71.17
65396;HTU21D;52004;45.136;39.010;2023-07-13T03:39:06;21.24;71.13
65396;HTU21D;52004;45.136;39.010;2023-07-13T03:41:54;21.30;71.13
65396;HTU21D;52004;45.136;39.010;2023-07-13T03:44:21;21.36;71.13
65396;HTU21D;52004;45.136;39.010;2023-07-13T03:46:51;21.40;71.10
65396;HTU21D;52004;45.136;39.010;2023-07-13T03:49:17;21.48;71.09
65396;HTU21D;52004;45.136;39.010;2023-07-13T03:51:43;21.53;71.09
65396;HTU21D;52004;45.136;39.010;2023-07-13T03:54:09;21.58;71.11
65396;HTU21D;52004;45.136;39.010;2023-07-13T03:56:36;21.63;71.08
65396;HTU21D;52004;45.136;39.010;2023-07-13T03:59:03;21.68;71.06
65396;HTU21D;52004;45.136;39.010;2023-07-13T04:01:30;21.74;71.04
65396;HTU21D;52004;45.136;39.010;2023-07-13T04:03:56;21.78;71.02
65396;HTU21D;52004;45.136;39.010;2023-07-13T04:06:26;21.83;71.02
65396;HTU21D;52004;45.136;39.010;2023-07-13T04:08:53;21.90;71.01
65396;HTU21D;52004;45.136;39.010;2023-07-13T04:11:20;21.95;71.06
65396;HTU21D;52004;45.136;39.010;2023-07-13T04:13:47;22.03;71.02
65396;HTU21D;52004;45.136;39.010;2023-07-13T04:16:13;22.08;71.00
65396;HTU21D;52004;45.136;39.010;2023-07-13T04:18:39;22.13;71.00
65396;HTU21D;52004;45.136;39.010;2023-07-13T04:21:07;22.21;70.93
65396;HTU21D;52004;45.136;39.010;2023-07-13T04:23:36;22.26;70.90
65396;HTU21D;52004;45.136;39.010;2023-07-13T04:26:02;22.31;70.86
65396;HTU21D;52004;45.136;39.010;2023-07-13T04:28:28;22.36;70.84
65396;HTU21D;52004;45.136;39.010;2023-07-13T04:30:54;22.42;70.77
65396;HTU21D;52004;45.136;39.010;2023-07-13T04:33:20;22.47;70.79
65396;HTU21D;52004;45.136;39.010;2023-07-13T04:35:50;22.53;70.74
65396;HTU21D;52004;45.136;39.010;2023-07-13T04:38:15;22.60;70.74
65396;HTU21D;52004;45.136;39.010;2023-07-13T04:40:44;22.64;70.68
65396;HTU21D;52004;45.136;39.010;2023-07-13T04:43:10;22.70;70.71
65396;HTU21D;52004;45.136;39.010;2023-07-13T04:45:36;22.77;70.71
65396;HTU21D;52004;45.136;39.010;2023-07-13T04:48:02;22.83;70.68
65396;HTU21D;52004;45.136;39.010;2023-07-13T04:50:28;22.90;70.64
65396;HTU21D;52004;45.136;39.010;2023-07-13T04:52:54;22.96;70.62
65396;HTU21D;52004;45.136;39.010;2023-07-13T04:55:20;23.01;70.58
65396;HTU21D;52004;45.136;39.010;2023-07-13T04:57:46;23.07;70.58
65396;HTU21D;52004;45.136;39.010;2023-07-13T05:00:13;23.13;70.51
65396;HTU21D;52004;45.136;39.010;2023-07-13T05:02:42;23.18;70.51
65396;HTU21D;52004;45.136;39.010;2023-07-13T05:05:08;23.24;70.50
65396;HTU21D;52004;45.136;39.010;2023-07-13T05:07:34;23.32;70.47
65396;HTU21D;52004;45.136;39.010;2023-07-13T05:10:00;23.38;70.44
65396;HTU21D;52004;45.136;39.010;2023-07-13T05:12:26;23.44;70.45
65396;HTU21D;52004;45.136;39.010;2023-07-13T05:14:52;23.52;70.39
65396;HTU21D;52004;45.136;39.010;2023-07-13T05:17:18;23.58;70.28
65396;HTU21D;52004;45.136;39.010;2023-07-13T05:19:44;23.64;70.24
65396;HTU21D;52004;45.136;39.010;2023-07-13T05:22:10;23.69;70.26
65396;HTU21D;52004;45.136;39.010;2023-07-13T05:24:36;23.79;70.40
65396;HTU21D;52004;45.136;39.010;2023-07-13T05:27:02;23.88;70.27
65396;HTU21D;52004;45.136;39.010;2023-07-13T05:29:27;23.98;70.19
65396;HTU21D;52004;45.136;39.010;2023-07-13T05:31:53;24.04;70.13
65396;HTU21D;52004;45.136;39.010;2023-07-13T05:34:19;24.14;70.19
65396;HTU21D;52004;45.136;39.010;2023-07-13T05:36:45;24.23;70.16
65396;HTU21D;52004;45.136;39.010;2023-07-13T05:39:11;24.29;70.01
65396;HTU21D;52004;45.136;39.010;2023-07-13T05:41:37;24.33;69.85
65396;HTU21D;52004;45.136;39.010;2023-07-13T05:44:03;24.33;69.77
65396;HTU21D;52004;45.136;39.010;2023-07-13T05:46:29;24.35;69.77
65396;HTU21D;52004;45.136;39.010;2023-07-13T05:48:54;24.38;69.73
65396;HTU21D;52004;45.136;39.010;2023-07-13T05:51:20;24.47;69.86
65396;HTU21D;52004;45.136;39.010;2023-07-13T05:53:46;24.51;69.66
65396;HTU21D;52004;45.136;39.010;2023-07-13T05:56:12;24.53;69.58
65396;HTU21D;52004;45.136;39.010;2023-07-13T05:58:38;24.58;69.66
65396;HTU21D;52004;45.136;39.010;2023-07-13T06:01:05;24.62;69.66
65396;HTU21D;52004;45.136;39.010;2023-07-13T06:03:31;24.71;69.64
65396;HTU21D;52004;45.136;39.010;2023-07-13T06:05:57;24.76;69.46
65396;HTU21D;52004;45.136;39.010;2023-07-13T06:08:26;24.79;69.46
65396;HTU21D;52004;45.136;39.010;2023-07-13T06:10:52;24.87;69.45
65396;HTU21D;52004;45.136;39.010;2023-07-13T06:13:18;24.92;69.35
65396;HTU21D;52004;45.136;39.010;2023-07-13T06:15:48;24.98;69.26
65396;HTU21D;52004;45.136;39.010;2023-07-13T06:18:14;25.05;69.39
65396;HTU21D;52004;45.136;39.010;2023-07-13T06:20:40;25.14;69.52
65396;HTU21D;52004;45.136;39.010;2023-07-13T06:23:06;25.24;69.40
65396;HTU21D;52004;45.136;39.010;2023-07-13T06:25:31;25.32;69.48
65396;HTU21D;52004;45.136;39.010;2023-07-13T06:27:57;25.45;69.39
65396;HTU21D;52004;45.136;39.010;2023-07-13T06:30:23;25.49;69.10
65396;HTU21D;52004;45.136;39.010;2023-07-13T06:32:49;25.47;68.96
65396;HTU21D;52004;45.136;39.010;2023-07-13T06:35:15;25.47;68.97
65396;HTU21D;52004;45.136;39.010;2023-07-13T06:37:41;25.45;68.93
65396;HTU21D;52004;45.136;39.010;2023-07-13T06:40:07;25.47;68.92
65396;HTU21D;52004;45.136;39.010;2023-07-13T06:42:33;25.44;68.69
65396;HTU21D;52004;45.136;39.010;2023-07-13T06:44:59;25.37;68.66
65396;HTU21D;52004;45.136;39.010;2023-07-13T06:47:24;25.37;68.87
65396;HTU21D;52004;45.136;39.010;2023-07-13T06:49:51;25.47;69.10
65396;HTU21D;52004;45.136;39.010;2023-07-13T06:52:16;25.61;69.13
65396;HTU21D;52004;45.136;39.010;2023-07-13T06:54:42;25.74;69.00
65396;HTU21D;52004;45.136;39.010;2023-07-13T06:57:08;25.86;69.00
65396;HTU21D;52004;45.136;39.010;2023-07-13T06:59:34;25.98;68.99
65396;HTU21D;52004;45.136;39.010;2023-07-13T07:02:00;26.13;68.95
65396;HTU21D;52004;45.136;39.010;2023-07-13T07:04:26;26.20;68.69
65396;HTU21D;52004;45.136;39.010;2023-07-13T07:06:52;26.20;68.45
65396;HTU21D;52004;45.136;39.010;2023-07-13T07:09:18;26.22;68.52
65396;HTU21D;52004;45.136;39.010;2023-07-13T07:11:44;26.24;68.44
65396;HTU21D;52004;45.136;39.010;2023-07-13T07:14:10;26.32;68.62
65396;HTU21D;52004;45.136;39.010;2023-07-13T07:16:36;26.42;68.49
65396;HTU21D;52004;45.136;39.010;2023-07-13T07:19:02;26.50;68.49
65396;HTU21D;52004;45.136;39.010;2023-07-13T07:21:28;26.63;68.53
65396;HTU21D;52004;45.136;39.010;2023-07-13T07:23:53;26.77;68.36
65396;HTU21D;52004;45.136;39.010;2023-07-13T07:26:19;26.82;68.04
65396;HTU21D;52004;45.136;39.010;2023-07-13T07:28:45;26.86;67.84
65396;HTU21D;52004;45.136;39.010;2023-07-13T07:31:11;26.91;67.88
65396;HTU21D;52004;45.136;39.010;2023-07-13T07:33:37;26.97;67.74
65396;HTU21D;52004;45.136;39.010;2023-07-13T07:36:03;27.01;67.81
65396;HTU21D;52004;45.136;39.010;2023-07-13T07:38:29;27.08;67.69
65396;HTU21D;52004;45.136;39.010;2023-07-13T07:40:55;27.12;67.57
65396;HTU21D;52004;45.136;39.010;2023-07-13T07:43:21;27.16;67.44
65396;HTU21D;52004;45.136;39.010;2023-07-13T07:45:47;27.17;67.45
65396;HTU21D;52004;45.136;39.010;2023-07-13T07:48:13;27.22;67.42
65396;HTU21D;52004;45.136;39.010;2023-07-13T07:50:39;27.28;67.35
65396;HTU21D;52004;45.136;39.010;2023-07-13T07:53:06;27.29;67.09
65396;HTU21D;52004;45.136;39.010;2023-07-13T07:55:36;27.28;67.10
65396;HTU21D;52004;45.136;39.010;2023-07-13T07:58:02;27.36;67.21
65396;HTU21D;52004;45.136;39.010;2023-07-13T08:00:53;27.46;67.25
65396;HTU21D;52004;45.136;39.010;2023-07-13T08:03:19;27.59;67.16
65396;HTU21D;52004;45.136;39.010;2023-07-13T08:05:45;27.67;66.78
65396;HTU21D;52004;45.136;39.010;2023-07-13T08:08:11;27.72;66.65
65396;HTU21D;52004;45.136;39.010;2023-07-13T08:10:37;27.72;66.41
65396;HTU21D;52004;45.136;39.010;2023-07-13T08:13:03;27.73;66.60
65396;HTU21D;52004;45.136;39.010;2023-07-13T08:15:28;27.81;66.57
65396;HTU21D;52004;45.136;39.010;2023-07-13T08:17:54;27.86;66.35
65396;HTU21D;52004;45.136;39.010;2023-07-13T08:20:20;27.89;66.47
65396;HTU21D;52004;45.136;39.010;2023-07-13T08:22:46;28.00;66.55
65396;HTU21D;52004;45.136;39.010;2023-07-13T08:25:12;28.06;66.11
65396;HTU21D;52004;45.136;39.010;2023-07-13T08:27:38;28.00;65.91
65396;HTU21D;52004;45.136;39.010;2023-07-13T08:30:04;28.00;66.11
65396;HTU21D;52004;45.136;39.010;2023-07-13T08:32:31;28.08;66.20
65396;HTU21D;52004;45.136;39.010;2023-07-13T08:34:57;28.18;66.03
65396;HTU21D;52004;45.136;39.010;2023-07-13T08:37:23;28.28;65.92
65396;HTU21D;52004;45.136;39.010;2023-07-13T08:39:49;28.38;65.91
65396;HTU21D;52004;45.136;39.010;2023-07-13T08:47:28;28.69;65.62
65396;HTU21D;52004;45.136;39.010;2023-07-13T08:49:55;28.77;65.48
65396;HTU21D;52004;45.136;39.010;2023-07-13T08:54:50;28.87;65.19
65396;HTU21D;52004;45.136;39.010;2023-07-13T08:57:20;28.97;65.30
65396;HTU21D;52004;45.136;39.010;2023-07-13T08:59:46;29.04;64.93
65396;HTU21D;52004;45.136;39.010;2023-07-13T09:04:49;0.00;64.79
65396;HTU21D;52004;45.136;39.010;2023-07-13T09:12:19;28.63;64.10
65396;HTU21D;52004;45.136;39.010;2023-07-13T09:14:48;28.43;64.17
65396;HTU21D;52004;45.136;39.010;2023-07-13T09:17:19;28.21;64.28
65396;HTU21D;52004;45.136;39.010;2023-07-13T09:19:47;28.05;64.38
65396;HTU21D;52004;45.136;39.010;2023-07-13T09:22:14;27.94;64.43
65396;HTU21D;52004;45.136;39.010;2023-07-13T09:24:52;27.84;64.50
65396;HTU21D;52004;45.136;39.010;2023-07-13T09:27:20;27.76;64.51
65396;HTU21D;52004;45.136;39.010;2023-07-13T09:29:48;27.71;64.55
65396;HTU21D;52004;45.136;39.010;2023-07-13T09:32:15;27.64;64.53
65396;HTU21D;52004;45.136;39.010;2023-07-13T09:34:49;27.58;64.43
65396;HTU21D;52004;45.136;39.010;2023-07-13T09:37:16;27.52;64.45
65396;HTU21D;52004;45.136;39.010;2023-07-13T09:39:42;27.43;64.42
65396;HTU21D;52004;45.136;39.010;2023-07-13T09:44:38;27.27;64.43
65396;HTU21D;52004;45.136;39.010;2023-07-13T09:47:13;27.21;64.50
65396;HTU21D;52004;45.136;39.010;2023-07-13T09:49:41;27.16;64.57
65396;HTU21D;52004;45.136;39.010;2023-07-13T09:52:11;27.12;64.56
65396;HTU21D;52004;45.136;39.010;2023-07-13T09:54:37;27.11;64.59
65396;HTU21D;52004;45.136;39.010;2023-07-13T09:57:08;27.11;64.62
65396;HTU21D;52004;45.136;39.010;2023-07-13T09:59:39;27.10;64.52
65396;HTU21D;52004;45.136;39.010;2023-07-13T10:05:02;27.04;64.45
65396;HTU21D;52004;45.136;39.010;2023-07-13T10:07:29;27.00;64.46
65396;HTU21D;52004;45.136;39.010;2023-07-13T10:09:55;26.97;64.40
65396;HTU21D;52004;45.136;39.010;2023-07-13T10:12:22;26.95;64.44
65396;HTU21D;52004;45.136;39.010;2023-07-13T10:14:52;26.94;64.48
65396;HTU21D;52004;45.136;39.010;2023-07-13T10:17:25;26.98;64.59
65396;HTU21D;52004;45.136;39.010;2023-07-13T10:19:51;27.09;64.83
65396;HTU21D;52004;45.136;39.010;2023-07-13T10:23:04;27.23;64.83
65396;HTU21D;52004;45.136;39.010;2023-07-13T10:25:11;27.39;64.69
65396;HTU21D;52004;45.136;39.010;2023-07-13T10:27:39;27.50;64.54
65396;HTU21D;52004;45.136;39.010;2023-07-13T10:32:37;27.58;64.40
65396;HTU21D;52004;45.136;39.010;2023-07-13T10:35:03;27.64;64.44
65396;HTU21D;52004;45.136;39.010;2023-07-13T10:38:02;27.70;64.44
65396;HTU21D;52004;45.136;39.010;2023-07-13T10:40:33;27.74;64.34
65396;HTU21D;52004;45.136;39.010;2023-07-13T10:43:01;27.81;64.53
65396;HTU21D;52004;45.136;39.010;2023-07-13T10:45:27;27.98;64.33
65396;HTU21D;52004;45.136;39.010;2023-07-13T10:47:54;28.15;64.28
65396;HTU21D;52004;45.136;39.010;2023-07-13T10:50:22;28.28;63.93
65396;HTU21D;52004;45.136;39.010;2023-07-13T10:52:49;28.40;64.11
65396;HTU21D;52004;45.136;39.010;2023-07-13T10:55:32;28.60;64.01
65396;HTU21D;52004;45.136;39.010;2023-07-13T10:58:12;28.75;63.56
65396;HTU21D;52004;45.136;39.010;2023-07-13T11:00:46;28.84;63.50
65396;HTU21D;52004;45.136;39.010;2023-07-13T11:03:14;28.94;63.38
65396;HTU21D;52004;45.136;39.010;2023-07-13T11:05:41;29.03;63.33
65396;HTU21D;52004;45.136;39.010;2023-07-13T11:10:52;29.22;63.20
65396;HTU21D;52004;45.136;39.010;2023-07-13T11:13:38;29.33;62.98
65396;HTU21D;52004;45.136;39.010;2023-07-13T11:21:13;29.56;62.81
65396;HTU21D;52004;45.136;39.010;2023-07-13T11:23:41;29.60;62.67
65396;HTU21D;52004;45.136;39.010;2023-07-13T11:26:37;29.62;62.35
65396;HTU21D;52004;45.136;39.010;2023-07-13T11:28:53;29.60;62.34
65396;HTU21D;52004;45.136;39.010;2023-07-13T11:31:19;29.61;62.43
65396;HTU21D;52004;45.136;39.010;2023-07-13T11:33:52;29.66;62.50
65396;HTU21D;52004;45.136;39.010;2023-07-13T11:36:19;29.71;62.28
65396;HTU21D;52004;45.136;39.010;2023-07-13T11:39:16;29.63;61.96
65396;HTU21D;52004;45.136;39.010;2023-07-13T11:41:45;29.50;61.89
65396;HTU21D;52004;45.136;39.010;2023-07-13T11:44:13;29.46;62.15
65396;HTU21D;52004;45.136;39.010;2023-07-13T11:46:43;29.46;62.04
65396;HTU21D;52004;45.136;39.010;2023-07-13T11:49:11;29.37;61.73
65396;HTU21D;52004;45.136;39.010;2023-07-13T11:51:39;29.27;61.90
65396;HTU21D;52004;45.136;39.010;2023-07-13T11:54:11;29.30;62.08
65396;HTU21D;52004;45.136;39.010;2023-07-13T11:56:38;29.30;61.91
65396;HTU21D;52004;45.136;39.010;2023-07-13T11:59:05;29.27;61.91
65396;HTU21D;52004;45.136;39.010;2023-07-13T12:01:32;29.26;61.96
65396;HTU21D;52004;45.136;39.010;2023-07-13T12:03:58;29.30;62.08
65396;HTU21D;52004;45.136;39.010;2023-07-13T12:06:29;29.36;62.00
65396;HTU21D;52004;45.136;39.010;2023-07-13T12:08:59;29.42;61.94
65396;HTU21D;52004;45.136;39.010;2023-07-13T12:11:26;29.47;61.84
65396;HTU21D;52004;45.136;39.010;2023-07-13T12:13:52;29.54;61.79
65396;HTU21D;52004;45.136;39.010;2023-07-13T12:16:31;29.61;61.81
65396;HTU21D;52004;45.136;39.010;2023-07-13T12:19:00;29.65;61.63
65396;HTU21D;52004;45.136;39.010;2023-07-13T12:21:29;29.62;61.50
65396;HTU21D;52004;45.136;39.010;2023-07-13T12:23:56;29.54;61.38
65396;HTU21D;52004;45.136;39.010;2023-07-13T12:26:22;29.42;61.37
65396;HTU21D;52004;45.136;39.010;2023-07-13T12:28:49;29.32;61.34
65396;HTU21D;52004;45.136;39.010;2023-07-13T12:31:43;29.26;61.45
65396;HTU21D;52004;45.136;39.010;2023-07-13T12:34:11;29.22;61.48
65396;HTU21D;52004;45.136;39.010;2023-07-13T12:39:28;29.18;61.43
65396;HTU21D;52004;45.136;39.010;2023-07-13T12:44:43;29.23;61.61
65396;HTU21D;52004;45.136;39.010;2023-07-13T12:47:11;29.24;61.44
65396;HTU21D;52004;45.136;39.010;2023-07-13T12:49:40;29.19;61.29
65396;HTU21D;52004;45.136;39.010;2023-07-13T12:52:28;29.17;61.42
65396;HTU21D;52004;45.136;39.010;2023-07-13T12:55:02;29.18;61.38
65396;HTU21D;52004;45.136;39.010;2023-07-13T12:57:28;29.18;61.36
65396;HTU21D;52004;45.136;39.010;2023-07-13T12:59:55;29.24;61.47
65396;HTU21D;52004;45.136;39.010;2023-07-13T13:02:26;29.30;61.28
65396;HTU21D;52004;45.136;39.010;2023-07-13T13:04:54;29.32;61.17
65396;HTU21D;52004;45.136;39.010;2023-07-13T13:07:21;29.33;61.05
65396;HTU21D;52004;45.136;39.010;2023-07-13T13:09:47;29.35;60.98
65396;HTU21D;52004;45.136;39.010;2023-07-13T13:12:13;29.29;60.77
65396;HTU21D;52004;45.136;39.010;2023-07-13T13:14:39;29.18;60.66
65396;HTU21D;52004;45.136;39.010;2023-07-13T13:17:08;29.05;60.64
65396;HTU21D;52004;45.136;39.010;2023-07-13T13:19:44;28.89;60.41
65396;HTU21D;52004;45.136;39.010;2023-07-13T13:22:10;28.73;60.52
65396;HTU21D;52004;45.136;39.010;2023-07-13T13:24:37;28.59;60.78
65396;HTU21D;52004;45.136;39.010;2023-07-13T13:27:03;28.55;60.96
65396;HTU21D;52004;45.136;39.010;2023-07-13T13:29:31;28.59;61.15
65396;HTU21D;52004;45.136;39.010;2023-07-13T13:31:57;28.69;61.16
65396;HTU21D;52004;45.136;39.010;2023-07-13T13:34:23;28.78;61.21
65396;HTU21D;52004;45.136;39.010;2023-07-13T13:36:49;28.89;61.05
65396;HTU21D;52004;45.136;39.010;2023-07-13T13:39:20;28.94;60.89
65396;HTU21D;52004;45.136;39.010;2023-07-13T13:41:47;28.92;60.78
65396;HTU21D;52004;45.136;39.010;2023-07-13T13:44:14;28.88;60.70
65396;HTU21D;52004;45.136;39.010;2023-07-13T13:46:40;28.80;60.65
65396;HTU21D;52004;45.136;39.010;2023-07-13T13:49:11;28.72;60.54
65396;HTU21D;52004;45.136;39.010;2023-07-13T13:51:38;28.61;60.50
65396;HTU21D;52004;45.136;39.010;2023-07-13T13:54:05;28.53;60.58
65396;HTU21D;52004;45.136;39.010;2023-07-13T13:56:31;28.46;60.56
65396;HTU21D;52004;45.136;39.010;2023-07-13T13:58:56;28.39;60.62
65396;HTU21D;52004;45.136;39.010;2023-07-13T14:01:22;28.34;60.70
65396;HTU21D;52004;45.136;39.010;2023-07-13T14:03:50;28.31;60.66
65396;HTU21D;52004;45.136;39.010;2023-07-13T14:06:17;28.26;60.54
65396;HTU21D;52004;45.136;39.010;2023-07-13T14:08:43;28.18;60.54
65396;HTU21D;52004;45.136;39.010;2023-07-13T14:11:12;28.13;60.60
65396;HTU21D;52004;45.136;39.010;2023-07-13T14:13:41;28.06;60.60
65396;HTU21D;52004;45.136;39.010;2023-07-13T14:16:11;28.01;60.51
65396;HTU21D;52004;45.136;39.010;2023-07-13T14:18:38;27.94;60.63
65396;HTU21D;52004;45.136;39.010;2023-07-13T14:21:08;27.89;60.64
65396;HTU21D;52004;45.136;39.010;2023-07-13T14:23:36;27.86;60.71
65396;HTU21D;52004;45.136;39.010;2023-07-13T14:26:03;27.84;60.70
65396;HTU21D;52004;45.136;39.010;2023-07-13T14:28:29;27.82;60.69
65396;HTU21D;52004;45.136;39.010;2023-07-13T14:30:55;27.80;60.74
65396;HTU21D;52004;45.136;39.010;2023-07-13T14:33:21;27.80;60.75
65396;HTU21D;52004;45.136;39.010;2023-07-13T14:35:47;27.80;60.72
65396;HTU21D;52004;45.136;39.010;2023-07-13T14:38:15;27.81;60.77
65396;HTU21D;52004;45.136;39.010;2023-07-13T14:40:41;27.85;60.80
65396;HTU21D;52004;45.136;39.010;2023-07-13T14:43:14;27.87;60.76
65396;HTU21D;52004;45.136;39.010;2023-07-13T14:45:41;27.89;60.72
65396;HTU21D;52004;45.136;39.010;2023-07-13T14:48:14;27.88;60.67
65396;HTU21D;52004;45.136;39.010;2023-07-13T14:50:41;27.86;60.68
65396;HTU21D;52004;45.136;39.010;2023-07-13T14:53:10;27.87;60.62
65396;HTU21D;52004;45.136;39.010;2023-07-13T14:55:37;27.88;60.73
65396;HTU21D;52004;45.136;39.010;2023-07-13T14:58:03;27.93;60.73
65396;HTU21D;52004;45.136;39.010;2023-07-13T15:00:29;27.98;60.69
65396;HTU21D;52004;45.136;39.010;2023-07-13T15:02:57;28.01;60.65
65396;HTU21D;52004;45.136;39.010;2023-07-13T15:05:25;28.05;60.67
65396;HTU21D;52004;45.136;39.010;2023-07-13T15:07:52;28.11;60.67
65396;HTU21D;52004;45.136;39.010;2023-07-13T15:10:19;28.14;60.63
65396;HTU21D;52004;45.136;39.010;2023-07-13T15:12:45;28.15;60.55
65396;HTU21D;52004;45.136;39.010;2023-07-13T15:15:12;28.16;60.51
65396;HTU21D;52004;45.136;39.010;2023-07-13T15:17:42;28.16;60.44
65396;HTU21D;52004;45.136;39.010;2023-07-13T15:22:38;28.15;60.58
65396;HTU21D;52004;45.136;39.010;2023-07-13T15:25:07;28.18;60.57
65396;HTU21D;52004;45.136;39.010;2023-07-13T15:27:37;28.18;60.45
65396;HTU21D;52004;45.136;39.010;2023-07-13T15:30:03;28.16;60.48
65396;HTU21D;52004;45.136;39.010;2023-07-13T15:32:29;28.15;60.47
65396;HTU21D;52004;45.136;39.010;2023-07-13T15:34:55;28.12;60.49
65396;HTU21D;52004;45.136;39.010;2023-07-13T15:37:21;28.11;60.51
65396;HTU21D;52004;45.136;39.010;2023-07-13T15:39:47;28.09;60.52
65396;HTU21D;52004;45.136;39.010;2023-07-13T15:42:14;28.08;60.57
65396;HTU21D;52004;45.136;39.010;2023-07-13T15:44:40;28.05;60.57